KLOZ

London-Corbin Arpt-Magee Field Airport

London, Kentucky, USA
KLOZ 210749Z 2108/2206 VRB06KT 6SM -SHRA BR SCT040 BKN070 FM210900 19005KT P6SM SCT010 BKN150 FM211500 25005KT P6SM SCT030 BKN060 FM211900 VRB04KT 6SM -SHRA BR VCTS SCT020CB BKN050 FM220400 VRB04KT P6SM VCTS SCT015CB BKN020
Issued Valid From Valid To
Jul-21 @ 07:49 UTC
(2 hours ago)
Jul-21 @ 08:00 UTC
(2 hours ago)
Jul-22 @ 06:00 UTC
(in 20 hours)
Expired Click to View Jul-21 @ 08:00 to Jul-21 @ 09:00
KLOZ 210749Z 2108/2206 VRB06KT 6SM -SHRA BR SCT040 BKN070
Wind Visibility Clouds Conditions
Variable at 6 knots 6 miles
  • Scattered at 4,000' AGL
  • Broken at 7,000' AGL
  • Light Rain
  • Mist
From Jul-21 @ 09:00 to Jul-21 @ 15:00
FM210900 19005KT P6SM SCT010 BKN150
Wind Visibility Clouds
190° at 5 knots Greater than 6 miles
  • Scattered at 1,000' AGL
  • Broken at 15,000' AGL
From Jul-21 @ 15:00 to Jul-21 @ 19:00
FM211500 25005KT P6SM SCT030 BKN060
Wind Visibility Clouds
250° at 5 knots Greater than 6 miles
  • Scattered at 3,000' AGL
  • Broken at 6,000' AGL
From Jul-21 @ 19:00 to Jul-22 @ 04:00
FM211900 VRB04KT 6SM -SHRA BR VCTS SCT020CB BKN050
Wind Visibility Clouds Conditions
Variable at 4 knots 6 miles
  • Scattered at 2,000' AGL
  • Broken at 5,000' AGL
  • Light Rain
  • Mist
  • Area Thunderstorm
From Jul-22 @ 04:00 to Jul-22 @ 06:00
FM220400 VRB04KT P6SM VCTS SCT015CB BKN020
Wind Visibility Clouds Conditions
Variable at 4 knots Greater than 6 miles
  • Scattered at 1,500' AGL
  • Broken at 2,000' AGL
  • Area Thunderstorm
KLOZ 210749Z 2108/2206 VRB06KT 6SM -SHRA BR SCT040 BKN070 FM210900 19005KT P6SM SCT010 BKN150 FM211500 25005KT P6SM SCT030 BKN060 FM211900 VRB04KT 6SM -SHRA BR VCTS SCT020CB BKN050 FM220400 VRB04KT P6SM VCTS SCT015CB BKN020
Issued Jul-21 @ 07:49 UTC
(2 hours ago)
Valid From Jul-21 @ 08:00 UTC
(2 hours ago)
Valid To Jul-22 @ 06:00 UTC
(in 20 hours)
Jul-21 @ 08:00 - Jul-21 @ 09:00
Wind Visibility
Variable at 6 knots 6 miles
Clouds
  • Scattered at 4,000' AGL
  • Broken at 7,000' AGL
Conditions
  • Light Rain
  • Mist
From Jul-21 @ 09:00 - Jul-21 @ 15:00
Wind Visibility
190° at 5 knots Greater than 6 miles
Clouds
  • Scattered at 1,000' AGL
  • Broken at 15,000' AGL
From Jul-21 @ 15:00 - Jul-21 @ 19:00
Wind Visibility
250° at 5 knots Greater than 6 miles
Clouds
  • Scattered at 3,000' AGL
  • Broken at 6,000' AGL
From Jul-21 @ 19:00 - Jul-22 @ 04:00
Wind Visibility
Variable at 4 knots 6 miles
Clouds
  • Scattered at 2,000' AGL
  • Broken at 5,000' AGL
Conditions
  • Light Rain
  • Mist
  • Area Thunderstorm
From Jul-22 @ 04:00 - Jul-22 @ 06:00
Wind Visibility
Variable at 4 knots Greater than 6 miles
Clouds
  • Scattered at 1,500' AGL
  • Broken at 2,000' AGL
Conditions
  • Area Thunderstorm